< < Back
Terminal Aerodrome Forecast


Current Version              Previous Versions:   1  2  3  4  5  6  7  8  9  

Terminal Aerodrome Forecast

191
FTUS42 KCHS 140528
TAFCHS
TAF
KCHS 140528Z 1406/1506 04007KT P6SM SKC
     FM141400 05010KT P6SM FEW040 BKN250
     FM150000 06009KT P6SM SCT025 BKN035=

Latest METAR

026
SAUS80 KWBC 142100 RRA
MTRCHS
METAR KCHS 142056Z 08010KT 10SM OVC039 05/M06 A3039 RMK AO2 SLP292
T00501056 56017


USA.gov is the U.S. government's official web portal to all federal, state and local government web resources and services.